createdAt,value
2019-04-02T00:02:22.640Z,21.20
2019-04-02T00:04:52.068Z,16.60
2019-04-02T00:07:21.438Z,14.03
2019-04-02T00:09:50.796Z,13.33
2019-04-02T00:12:21.123Z,15.53
2019-04-02T00:14:50.601Z,15.70
2019-04-02T00:17:19.910Z,12.33
2019-04-02T00:19:49.252Z,14.97
2019-04-02T00:22:18.597Z,16.03
2019-04-02T00:24:47.972Z,12.00
2019-04-02T00:27:17.337Z,11.83
2019-04-02T00:29:46.874Z,14.40
2019-04-02T00:32:16.312Z,14.37
2019-04-02T00:34:45.608Z,12.13
2019-04-02T00:37:14.999Z,14.27
2019-04-02T00:39:44.284Z,16.93
2019-04-02T00:42:13.801Z,13.73
2019-04-02T00:44:43.163Z,13.40
2019-04-02T00:47:12.502Z,16.47
2019-04-02T00:49:43.231Z,18.00
2019-04-02T00:52:12.764Z,18.17
2019-04-02T00:54:42.088Z,15.73
2019-04-02T00:57:11.398Z,13.43
2019-04-02T00:59:40.731Z,16.53
2019-04-02T01:02:10.049Z,15.00
2019-04-02T01:04:39.848Z,14.63
2019-04-02T01:07:09.242Z,16.10
2019-04-02T01:09:38.660Z,13.13
2019-04-02T01:12:08.110Z,11.87
2019-04-02T01:14:37.492Z,17.87
2019-04-02T01:17:06.828Z,12.87
2019-04-02T01:19:36.204Z,15.90
2019-04-02T01:22:05.556Z,16.80
2019-04-02T01:24:34.874Z,12.97
2019-04-02T01:27:04.163Z,19.60
2019-04-02T01:29:33.519Z,14.27
2019-04-02T01:32:02.806Z,15.57
2019-04-02T01:34:32.123Z,15.73
2019-04-02T01:37:01.446Z,13.43
2019-04-02T01:39:30.781Z,16.60
2019-04-02T01:42:00.127Z,15.47
2019-04-02T01:44:29.499Z,14.53
2019-04-02T01:46:58.860Z,16.93
2019-04-02T01:49:28.284Z,15.67
2019-04-02T01:51:57.664Z,16.57
2019-04-02T01:54:28.337Z,17.03
2019-04-02T01:56:57.824Z,18.17
2019-04-02T01:59:27.164Z,17.93
2019-04-02T02:01:56.499Z,17.77
2019-04-02T02:04:25.911Z,16.83
2019-04-02T02:06:55.268Z,14.30
2019-04-02T02:09:24.694Z,17.13
2019-04-02T02:11:54.107Z,15.40
2019-04-02T02:14:23.750Z,16.77
2019-04-02T02:16:54.170Z,17.70
2019-04-02T02:19:24.085Z,16.40
2019-04-02T02:21:53.910Z,17.80
2019-04-02T02:24:23.424Z,19.00
2019-04-02T02:26:53.233Z,15.97
2019-04-02T02:29:22.844Z,17.80
2019-04-02T02:31:52.335Z,17.07
2019-04-02T02:34:21.894Z,16.00
2019-04-02T02:36:51.328Z,19.20
2019-04-02T02:39:21.211Z,16.10
2019-04-02T02:42:06.562Z,15.70
2019-04-02T02:44:36.417Z,17.10
2019-04-02T02:47:06.305Z,19.67
2019-04-02T02:49:36.181Z,17.03
2019-04-02T02:52:06.224Z,19.60
2019-04-02T02:54:36.021Z,17.13
2019-04-02T02:57:06.033Z,19.67
2019-04-02T02:59:35.972Z,18.80
2019-04-02T03:02:06.632Z,16.30
2019-04-02T03:04:36.370Z,16.77
2019-04-02T03:07:08.030Z,19.93
2019-04-02T03:09:38.075Z,18.60
2019-04-02T03:12:08.232Z,16.63
2019-04-02T03:14:39.202Z,20.07
2019-04-02T03:17:11.494Z,17.77
2019-04-02T03:19:41.081Z,18.87
2019-04-02T03:22:11.116Z,19.13
2019-04-02T03:24:41.361Z,19.40
2019-04-02T03:27:11.349Z,17.67
2019-04-02T03:29:41.475Z,17.77
2019-04-02T03:32:13.737Z,19.60
2019-04-02T03:34:43.901Z,18.43
2019-04-02T03:37:14.372Z,17.73
2019-04-02T03:39:44.457Z,18.87
2019-04-02T03:42:14.457Z,20.10
2019-04-02T03:44:44.612Z,20.90
2019-04-02T03:47:15.156Z,20.77
2019-04-02T03:49:46.041Z,19.43
2019-04-02T03:52:17.400Z,19.17
2019-04-02T03:54:48.015Z,20.63
2019-04-02T03:57:18.279Z,18.60
2019-04-02T03:59:48.600Z,22.10
2019-04-02T04:02:21.850Z,18.17
2019-04-02T04:04:51.804Z,18.70
2019-04-02T04:07:22.139Z,20.87
2019-04-02T04:09:52.276Z,29.13
2019-04-02T04:12:21.988Z,16.37
2019-04-02T04:14:51.943Z,19.97
2019-04-02T04:17:23.763Z,20.23
2019-04-02T04:19:53.470Z,18.63
2019-04-02T04:22:23.916Z,20.20
2019-04-02T04:24:56.176Z,22.50
2019-04-02T04:27:25.649Z,20.03
2019-04-02T04:29:55.824Z,22.07
2019-04-02T04:32:25.726Z,20.17
2019-04-02T04:34:55.329Z,18.57
2019-04-02T04:37:26.754Z,21.40
2019-04-02T04:39:56.393Z,23.40
2019-04-02T04:42:26.097Z,20.63
2019-04-02T04:44:59.358Z,22.13
2019-04-02T04:47:26.849Z,21.57
2019-04-02T04:49:56.342Z,19.90
2019-04-02T04:52:26.624Z,22.00
2019-04-02T04:54:57.297Z,20.33
2019-04-02T04:57:26.984Z,21.87
2019-04-02T04:59:56.323Z,24.83
2019-04-02T05:03:00.853Z,18.60
2019-04-02T05:05:30.528Z,23.77
2019-04-02T05:08:00.151Z,25.23
2019-04-02T05:10:29.647Z,24.80
2019-04-02T05:12:59.417Z,19.57
2019-04-02T05:15:29.099Z,22.73
2019-04-02T05:17:58.680Z,22.70
2019-04-02T05:20:28.431Z,22.33
2019-04-02T05:22:58.257Z,20.97
2019-04-02T05:25:27.712Z,21.23
2019-04-02T05:27:57.574Z,23.77
2019-04-02T05:30:27.513Z,22.20
2019-04-02T05:32:57.487Z,22.60
2019-04-02T05:35:27.113Z,23.73
2019-04-02T05:37:56.509Z,22.60
2019-04-02T05:40:25.907Z,23.13
2019-04-02T05:42:55.284Z,19.13
2019-04-02T05:45:24.626Z,22.10
2019-04-02T05:47:54.057Z,20.23
2019-04-02T05:50:23.567Z,21.53
2019-04-02T05:52:54.442Z,22.53
2019-04-02T05:55:24.386Z,22.93
2019-04-02T05:57:53.853Z,25.23
2019-04-02T06:00:23.485Z,22.47
2019-04-02T06:02:53.096Z,22.57
2019-04-02T06:05:26.344Z,20.37
2019-04-02T06:07:55.788Z,20.90
2019-04-02T06:10:25.523Z,24.47
2019-04-02T06:12:55.223Z,21.57
2019-04-02T06:15:25.333Z,21.70
2019-04-02T06:18:03.469Z,20.63
2019-04-02T06:20:33.138Z,21.93
2019-04-02T06:23:03.059Z,21.20
2019-04-02T06:25:32.857Z,22.60
2019-04-02T06:28:02.729Z,26.07
2019-04-02T06:30:32.548Z,22.93
2019-04-02T06:33:02.344Z,18.37
2019-04-02T06:35:32.345Z,23.43
2019-04-02T06:38:04.434Z,22.63
2019-04-02T06:40:34.033Z,20.03
2019-04-02T06:43:04.223Z,23.47
2019-04-02T06:45:33.648Z,18.93
2019-04-02T06:48:28.059Z,19.40
2019-04-02T06:50:58.240Z,17.93
2019-04-02T06:53:28.903Z,23.27
2019-04-02T06:55:58.993Z,18.17
2019-04-02T06:58:29.312Z,23.97
2019-04-02T07:01:03.364Z,25.23
2019-04-02T07:03:34.082Z,24.23
2019-04-02T07:06:03.967Z,21.73
2019-04-02T07:08:46.471Z,22.40
2019-04-02T07:11:06.028Z,24.90
2019-04-02T07:13:36.520Z,21.70
2019-04-02T07:16:07.777Z,18.57
2019-04-02T07:18:37.944Z,22.43
2019-04-02T07:21:07.728Z,23.87
2019-04-02T07:23:39.456Z,19.60
2019-04-02T07:26:09.327Z,21.17
2019-04-02T07:28:38.967Z,19.63
2019-04-02T07:31:08.597Z,25.63
2019-04-02T07:33:38.407Z,21.50
2019-04-02T07:36:09.145Z,25.03
2019-04-02T07:38:39.225Z,17.33
2019-04-02T07:41:12.206Z,21.23
2019-04-02T07:43:40.109Z,21.07
2019-04-02T07:46:09.513Z,21.43
2019-04-02T07:48:38.949Z,22.43
2019-04-02T07:51:08.826Z,23.80
2019-04-02T07:53:38.192Z,20.33
2019-04-02T07:56:07.577Z,22.50
2019-04-02T07:58:36.935Z,26.43
2019-04-02T08:01:06.557Z,23.27
2019-04-02T08:03:35.962Z,20.83
2019-04-02T08:06:05.429Z,21.43
2019-04-02T08:08:36.864Z,17.47
2019-04-02T08:11:05.870Z,23.40
2019-04-02T08:13:35.273Z,22.13
2019-04-02T08:16:04.756Z,27.93
2019-04-02T08:18:34.591Z,24.97
2019-04-02T08:21:04.140Z,28.40
2019-04-02T08:23:33.507Z,25.87
2019-04-02T08:26:02.857Z,26.90
2019-04-02T08:28:32.297Z,25.40
2019-04-02T08:31:01.720Z,22.50
2019-04-02T08:33:31.158Z,22.93
2019-04-02T08:36:00.607Z,20.10
2019-04-02T08:38:31.165Z,24.03
2019-04-02T08:41:01.386Z,23.60
2019-04-02T08:43:30.845Z,17.97
2019-04-02T08:46:00.332Z,20.93
2019-04-02T08:48:30.032Z,23.73
2019-04-02T08:50:59.648Z,22.47
2019-04-02T08:53:30.890Z,19.20
2019-04-02T08:56:00.405Z,20.97
2019-04-02T08:58:29.909Z,22.10
2019-04-02T09:01:00.534Z,21.60
2019-04-02T09:03:30.775Z,20.97
2019-04-02T09:06:00.680Z,21.37
2019-04-02T09:08:30.020Z,19.63
2019-04-02T09:10:59.385Z,21.63
2019-04-02T09:13:29.255Z,21.87
2019-04-02T09:15:59.473Z,22.07
2019-04-02T09:18:28.834Z,21.57
2019-04-02T09:20:58.306Z,24.97
2019-04-02T09:23:27.847Z,24.27
2019-04-02T09:25:57.283Z,22.43
2019-04-02T09:28:26.768Z,24.00
2019-04-02T09:30:56.185Z,22.23
2019-04-02T09:33:25.597Z,24.63
2019-04-02T09:35:54.933Z,25.50
2019-04-02T09:38:24.253Z,25.77
2019-04-02T09:40:53.548Z,23.37
2019-04-02T09:43:22.982Z,25.03
2019-04-02T09:45:52.439Z,24.37
2019-04-02T09:48:21.863Z,24.20
2019-04-02T09:50:51.305Z,25.13
2019-04-02T09:53:20.863Z,23.60
2019-04-02T09:55:53.068Z,24.27
2019-04-02T09:58:21.513Z,30.70
2019-04-02T10:00:50.964Z,28.10
2019-04-02T10:03:20.500Z,28.37
2019-04-02T10:05:50.096Z,23.43
2019-04-02T10:08:19.509Z,26.33
2019-04-02T10:10:48.922Z,32.13
2019-04-02T10:13:18.380Z,33.13
2019-04-02T10:15:47.856Z,29.43
2019-04-02T10:18:17.436Z,30.17
2019-04-02T10:20:47.285Z,29.03
2019-04-02T10:23:16.874Z,33.30
2019-04-02T10:25:47.284Z,31.70
2019-04-02T10:28:17.289Z,35.77
2019-04-02T10:30:47.246Z,34.83
2019-04-02T10:33:17.211Z,34.93
2019-04-02T10:35:47.155Z,35.43
2019-04-02T10:38:17.212Z,37.70
2019-04-02T10:40:47.320Z,36.87
2019-04-02T10:43:17.085Z,35.07
2019-04-02T10:45:47.139Z,37.53
2019-04-02T10:48:17.001Z,34.67
2019-04-02T10:50:46.794Z,34.27
2019-04-02T10:53:16.956Z,34.07
2019-04-02T10:55:46.953Z,32.27
2019-04-02T10:58:16.927Z,32.70
2019-04-02T11:00:47.749Z,32.93
2019-04-02T11:03:17.584Z,30.27
2019-04-02T11:05:47.397Z,31.60
2019-04-02T11:08:17.679Z,27.60
2019-04-02T11:10:48.296Z,30.27
2019-04-02T11:13:18.049Z,29.50
2019-04-02T11:15:47.900Z,28.30
2019-04-02T11:18:17.335Z,33.37
2019-04-02T11:20:46.649Z,32.27
2019-04-02T11:23:15.970Z,29.40
2019-04-02T11:25:45.347Z,30.70
2019-04-02T11:28:14.719Z,30.07
2019-04-02T11:30:44.167Z,32.57
2019-04-02T11:33:13.545Z,27.60
2019-04-02T11:35:43.420Z,29.97
2019-04-02T11:38:13.014Z,30.33
2019-04-02T11:40:42.451Z,32.10
2019-04-02T11:43:12.318Z,31.00
2019-04-02T11:45:42.129Z,28.27
2019-04-02T11:48:12.015Z,29.30
2019-04-02T11:50:41.678Z,28.67
2019-04-02T11:53:11.571Z,28.53
2019-04-02T11:55:40.893Z,33.87
2019-04-02T11:58:16.632Z,30.90
2019-04-02T12:00:43.965Z,35.37
2019-04-02T12:03:13.779Z,31.03
2019-04-02T12:05:43.399Z,35.30
2019-04-02T12:08:15.678Z,32.67
2019-04-02T12:10:44.842Z,34.30
2019-04-02T12:13:14.554Z,33.60
2019-04-02T12:15:49.621Z,32.43
2019-04-02T12:18:15.688Z,34.50
2019-04-02T12:20:46.736Z,31.37
2019-04-02T12:23:16.774Z,28.90
2019-04-02T12:25:46.450Z,32.07
2019-04-02T12:28:16.159Z,32.50
2019-04-02T12:30:46.282Z,31.77
2019-04-02T12:33:16.107Z,36.13
2019-04-02T12:35:45.584Z,36.20
2019-04-02T12:38:15.393Z,33.47
2019-04-02T12:40:44.927Z,37.27
2019-04-02T12:43:14.653Z,34.67
2019-04-02T12:45:44.068Z,38.07
2019-04-02T12:48:13.650Z,33.70
2019-04-02T12:50:43.238Z,35.87
2019-04-02T12:53:13.425Z,36.87
2019-04-02T12:55:43.244Z,32.67
2019-04-02T12:58:13.120Z,35.43
2019-04-02T13:00:42.845Z,32.53
2019-04-02T13:03:12.662Z,35.50
2019-04-02T13:05:42.279Z,32.40
2019-04-02T13:08:11.771Z,32.10
2019-04-02T13:10:41.349Z,37.33
2019-04-02T13:13:10.838Z,36.73
2019-04-02T13:15:40.205Z,34.13
2019-04-02T13:18:09.729Z,38.33
2019-04-02T13:20:39.309Z,40.03
2019-04-02T13:23:08.707Z,37.13
2019-04-02T13:25:38.108Z,38.33
2019-04-02T13:28:07.537Z,48.77
2019-04-02T13:30:36.891Z,112.67
2019-04-02T13:33:06.233Z,41.63
2019-04-02T13:35:35.654Z,44.13
2019-04-02T13:38:05.022Z,47.57
2019-04-02T13:40:34.447Z,45.23
2019-04-02T13:43:03.808Z,64.77
2019-04-02T13:45:33.248Z,44.97
2019-04-02T13:48:02.568Z,52.07
2019-04-02T13:50:32.002Z,55.60
2019-04-02T13:53:01.427Z,49.90
2019-04-02T13:55:30.777Z,46.63
2019-04-02T13:58:00.100Z,48.43
2019-04-02T14:01:12.382Z,50.17
2019-04-02T14:03:42.919Z,44.30
2019-04-02T14:06:12.355Z,43.43
2019-04-02T14:08:41.761Z,42.30
2019-04-02T14:11:11.351Z,42.00
2019-04-02T14:13:40.765Z,46.00
2019-04-02T14:16:10.279Z,39.70
2019-04-02T14:18:39.696Z,38.17
2019-04-02T14:21:14.463Z,43.43
2019-04-02T14:23:43.212Z,38.73
2019-04-02T14:26:12.613Z,46.73
2019-04-02T14:28:41.946Z,38.17
2019-04-02T14:31:11.669Z,40.30
2019-04-02T14:33:42.512Z,44.03
2019-04-02T14:36:14.126Z,37.00
2019-04-02T14:38:43.279Z,43.37
2019-04-02T14:41:13.234Z,41.10
2019-04-02T14:43:42.761Z,40.70
2019-04-02T14:46:12.176Z,36.63
2019-04-02T14:48:41.758Z,39.93
2019-04-02T14:51:11.263Z,42.57
2019-04-02T14:53:40.595Z,38.13
2019-04-02T14:56:10.016Z,43.10
2019-04-02T14:58:39.406Z,45.33
2019-04-02T15:01:08.793Z,39.73
2019-04-02T15:03:38.164Z,40.43
2019-04-02T15:06:07.582Z,42.07
2019-04-02T15:08:37.957Z,35.30
2019-04-02T15:11:07.890Z,41.00
2019-04-02T15:13:37.263Z,28.77
2019-04-02T15:16:06.673Z,32.33
2019-04-02T15:18:36.064Z,27.40
2019-04-02T15:21:07.511Z,25.00
2019-04-02T15:23:38.772Z,23.90
2019-04-02T15:26:08.439Z,21.43
2019-04-02T15:28:37.891Z,18.67
2019-04-02T15:31:07.211Z,14.97
2019-04-02T15:33:36.553Z,16.07
2019-04-02T15:36:05.886Z,13.53
2019-04-02T15:38:35.380Z,12.80
2019-04-02T15:41:04.748Z,13.33
2019-04-02T15:43:35.063Z,11.77
2019-04-02T15:46:04.551Z,11.23
2019-04-02T15:48:33.984Z,12.47
2019-04-02T15:51:03.318Z,13.77
2019-04-02T15:53:32.766Z,11.47
2019-04-02T15:56:02.236Z,10.57
2019-04-02T15:58:31.663Z,12.73
2019-04-02T16:01:01.054Z,10.97
2019-04-02T16:03:30.431Z,10.47
2019-04-02T16:05:59.779Z,10.13
2019-04-02T16:08:29.135Z,10.23
2019-04-02T16:10:58.462Z,10.30
2019-04-02T16:13:27.839Z,12.57
2019-04-02T16:15:59.887Z,13.47
2019-04-02T16:18:28.278Z,13.20
2019-04-02T16:20:57.587Z,10.17
2019-04-02T16:23:26.985Z,10.63
2019-04-02T16:25:56.364Z,11.07
2019-04-02T16:28:25.736Z,13.10
2019-04-02T16:30:55.135Z,8.37
2019-04-02T16:33:24.488Z,6.53
2019-04-02T16:35:53.877Z,6.50
2019-04-02T16:38:23.237Z,8.00
2019-04-02T16:40:53.214Z,6.70
2019-04-02T16:43:24.672Z,6.90
2019-04-02T16:45:54.085Z,6.83
2019-04-02T16:48:23.574Z,5.20
2019-04-02T16:50:52.967Z,4.67
2019-04-02T16:53:24.092Z,6.07
2019-04-02T16:55:54.787Z,5.00
2019-04-02T16:58:25.490Z,4.20
2019-04-02T17:00:56.723Z,7.00
2019-04-02T17:03:27.159Z,6.43
2019-04-02T17:05:57.965Z,3.90
2019-04-02T17:08:28.857Z,4.37
2019-04-02T17:10:58.553Z,4.10
2019-04-02T17:13:27.935Z,5.53
2019-04-02T17:15:59.370Z,4.63
2019-04-02T17:18:28.397Z,4.93
2019-04-02T17:20:57.792Z,4.63
2019-04-02T17:23:27.203Z,3.70
2019-04-02T17:25:56.579Z,3.00
2019-04-02T17:28:32.218Z,3.30
2019-04-02T17:30:57.186Z,3.93
2019-04-02T17:33:26.557Z,3.97
2019-04-02T17:35:55.877Z,3.90
2019-04-02T17:38:25.167Z,4.67
2019-04-02T17:40:54.700Z,3.33
2019-04-02T17:43:24.073Z,4.17
2019-04-02T17:45:53.644Z,4.53
2019-04-02T17:48:23.024Z,3.77
2019-04-02T17:50:52.346Z,4.17
2019-04-02T17:53:21.696Z,3.50
2019-04-02T17:55:51.031Z,5.50
2019-04-02T17:58:20.404Z,4.13
2019-04-02T18:00:49.760Z,4.40
2019-04-02T18:03:19.097Z,4.67
2019-04-02T18:05:50.977Z,4.57
2019-04-02T18:08:19.582Z,4.07
2019-04-02T18:10:48.974Z,5.80
2019-04-02T18:13:18.355Z,6.20
2019-04-02T18:15:48.395Z,6.60
2019-04-02T18:18:17.920Z,7.80
2019-04-02T18:20:47.340Z,6.97
2019-04-02T18:23:16.642Z,8.93
2019-04-02T18:25:46.025Z,7.53
2019-04-02T18:28:15.459Z,10.13
2019-04-02T18:30:44.955Z,8.73
2019-04-02T18:33:14.349Z,9.33
2019-04-02T18:35:43.711Z,12.87
2019-04-02T18:38:13.046Z,9.23
2019-04-02T18:40:42.354Z,7.90
2019-04-02T18:43:12.070Z,9.70
2019-04-02T18:45:41.717Z,11.70
2019-04-02T18:48:11.104Z,8.83
2019-04-02T18:50:40.526Z,11.40
2019-04-02T18:53:10.105Z,8.23
2019-04-02T18:55:39.522Z,7.07
2019-04-02T18:58:08.992Z,9.77
2019-04-02T19:00:38.426Z,11.57
2019-04-02T19:03:07.923Z,12.87
2019-04-02T19:05:37.272Z,11.17
2019-04-02T19:08:06.638Z,9.77
2019-04-02T19:10:36.026Z,12.80
2019-04-02T19:13:05.605Z,11.33
2019-04-02T19:15:34.997Z,13.70
2019-04-02T19:18:04.377Z,13.23
2019-04-02T19:20:33.750Z,11.90
2019-04-02T19:23:03.124Z,11.57
2019-04-02T19:25:35.149Z,13.87
2019-04-02T19:28:05.282Z,13.33
2019-04-02T19:30:34.613Z,14.20
2019-04-02T19:33:03.915Z,14.03
2019-04-02T19:35:34.715Z,12.37
2019-04-02T19:38:04.365Z,17.10
2019-04-02T19:40:33.766Z,12.10
2019-04-02T19:43:07.951Z,13.70
2019-04-02T19:45:34.313Z,15.07
2019-04-02T19:48:03.904Z,15.20
2019-04-02T19:50:33.347Z,16.43
2019-04-02T19:53:02.852Z,17.20
2019-04-02T19:55:33.483Z,22.77
2019-04-02T19:58:03.069Z,18.13
2019-04-02T20:00:32.385Z,20.63
2019-04-02T20:03:01.750Z,24.30
2019-04-02T20:05:32.592Z,22.27
2019-04-02T20:08:02.606Z,25.10
2019-04-02T20:10:32.160Z,24.03
2019-04-02T20:13:01.528Z,27.83
2019-04-02T20:15:30.920Z,29.97
2019-04-02T20:18:00.271Z,27.40
2019-04-02T20:20:29.632Z,27.13
2019-04-02T20:22:59.084Z,26.70
2019-04-02T20:25:30.814Z,22.23
2019-04-02T20:27:59.636Z,24.37
2019-04-02T20:30:29.003Z,22.50
2019-04-02T20:32:58.423Z,23.63
2019-04-02T20:35:27.827Z,24.00
2019-04-02T20:37:58.228Z,22.33
2019-04-02T20:40:28.934Z,23.37
2019-04-02T20:42:59.424Z,20.40
2019-04-02T20:45:28.859Z,20.63
2019-04-02T20:47:58.269Z,21.20
2019-04-02T20:50:27.622Z,19.93
2019-04-02T20:52:56.981Z,22.90
2019-04-02T20:55:26.309Z,25.20
2019-04-02T20:57:55.637Z,22.50
2019-04-02T21:00:24.967Z,24.40
2019-04-02T21:02:54.306Z,20.37
2019-04-02T21:05:23.695Z,22.27
2019-04-02T21:07:53.125Z,21.70
2019-04-02T21:10:25.285Z,20.30
2019-04-02T21:12:53.515Z,24.70
2019-04-02T21:15:24.438Z,25.30
2019-04-02T21:17:53.896Z,21.93
2019-04-02T21:20:23.280Z,21.13
2019-04-02T21:22:55.144Z,21.37
2019-04-02T21:25:23.734Z,18.97
2019-04-02T21:27:56.332Z,22.80
2019-04-02T21:30:25.292Z,18.23
2019-04-02T21:32:55.152Z,22.63
2019-04-02T21:35:24.554Z,18.57
2019-04-02T21:37:57.338Z,20.17
2019-04-02T21:40:24.897Z,17.30
2019-04-02T21:42:54.248Z,17.90
2019-04-02T21:45:23.553Z,19.67
2019-04-02T21:47:52.920Z,17.47
2019-04-02T21:50:22.222Z,22.33
2019-04-02T21:52:51.529Z,21.00
2019-04-02T21:55:20.875Z,17.73
2019-04-02T21:57:50.243Z,18.57
2019-04-02T22:00:22.188Z,19.03
2019-04-02T22:02:51.545Z,18.17
2019-04-02T22:05:20.913Z,21.43
2019-04-02T22:07:50.238Z,22.97
2019-04-02T22:10:19.569Z,19.63
2019-04-02T22:12:48.911Z,19.80
2019-04-02T22:15:18.242Z,20.60
2019-04-02T22:17:47.556Z,19.07
2019-04-02T22:20:19.635Z,20.93
2019-04-02T22:22:47.938Z,21.80
2019-04-02T22:25:17.258Z,20.07
2019-04-02T22:27:46.562Z,20.00
2019-04-02T22:30:17.151Z,22.77
2019-04-02T22:32:47.732Z,23.77
2019-04-02T22:35:17.987Z,22.50
2019-04-02T22:37:48.335Z,22.00
2019-04-02T22:40:17.639Z,21.10
2019-04-02T22:42:47.015Z,21.53
2019-04-02T22:45:16.424Z,20.73
2019-04-02T22:47:45.739Z,21.53
2019-04-02T22:50:15.169Z,21.93
2019-04-02T22:52:44.515Z,23.00
2019-04-02T22:55:13.828Z,21.47
2019-04-02T22:57:43.143Z,27.10
2019-04-02T23:00:12.881Z,25.50
2019-04-02T23:02:42.195Z,25.03
2019-04-02T23:05:11.596Z,26.73
2019-04-02T23:07:40.931Z,25.33
2019-04-02T23:10:10.464Z,25.10
2019-04-02T23:12:39.831Z,25.03
2019-04-02T23:15:09.364Z,28.87
2019-04-02T23:17:50.767Z,21.63
2019-04-02T23:20:09.969Z,22.87
2019-04-02T23:22:39.464Z,21.13
2019-04-02T23:25:09.291Z,20.87
2019-04-02T23:27:38.603Z,22.07
2019-04-02T23:30:08.728Z,25.53
2019-04-02T23:32:38.029Z,21.87
2019-04-02T23:35:07.537Z,20.93
2019-04-02T23:37:36.890Z,21.03
2019-04-02T23:40:07.013Z,22.17
2019-04-02T23:42:36.360Z,19.93
2019-04-02T23:45:07.129Z,20.17
2019-04-02T23:47:36.407Z,17.57
2019-04-02T23:50:06.268Z,21.90
2019-04-02T23:52:35.555Z,20.90
2019-04-02T23:55:05.490Z,22.30
2019-04-02T23:57:34.821Z,20.33
